createdAt,value
2022-10-22T00:02:27.896Z,11.33
2022-10-22T00:05:13.715Z,11.29
2022-10-22T00:07:59.457Z,11.31
2022-10-22T00:10:45.047Z,11.30
2022-10-22T00:13:30.781Z,11.27
2022-10-22T00:16:16.687Z,11.25
2022-10-22T00:19:02.758Z,11.23
2022-10-22T00:21:48.579Z,11.19
2022-10-22T00:24:34.956Z,11.15
2022-10-22T00:27:20.974Z,11.13
2022-10-22T00:30:07.214Z,11.10
2022-10-22T00:32:52.807Z,11.08
2022-10-22T00:35:38.513Z,11.02
2022-10-22T00:38:24.293Z,11.05
2022-10-22T00:41:10.026Z,11.04
2022-10-22T00:44:01.876Z,11.04
2022-10-22T00:46:47.632Z,11.04
2022-10-22T00:49:33.315Z,11.01
2022-10-22T00:52:19.588Z,10.92
2022-10-22T00:55:06.372Z,10.95
2022-10-22T00:57:54.835Z,10.97
2022-10-22T01:00:40.922Z,10.95
2022-10-22T01:03:26.947Z,10.95
2022-10-22T01:06:17.545Z,10.94
2022-10-22T01:09:13.439Z,10.93
2022-10-22T01:12:05.263Z,10.92
2022-10-22T01:15:23.279Z,10.90
2022-10-22T01:18:26.854Z,10.89
2022-10-22T01:21:20.915Z,10.89
2022-10-22T01:24:32.462Z,10.87
2022-10-22T01:27:30.782Z,10.87
2022-10-22T01:30:17.713Z,10.86
2022-10-22T01:33:06.593Z,10.86
2022-10-22T01:35:52.748Z,10.82
2022-10-22T01:38:40.186Z,10.84
2022-10-22T01:41:28.482Z,10.84
2022-10-22T01:47:57.142Z,10.78
2022-10-22T01:50:49.135Z,10.77
2022-10-22T01:53:49.445Z,10.74
2022-10-22T01:56:48.051Z,10.72
2022-10-22T02:00:13.849Z,10.67
2022-10-22T02:03:04.399Z,10.65
2022-10-22T02:05:53.850Z,10.61
2022-10-22T02:08:39.795Z,10.59
2022-10-22T02:11:26.214Z,10.57
2022-10-22T02:14:13.016Z,10.53
2022-10-22T02:16:59.430Z,10.51
2022-10-22T02:19:54.030Z,10.51
2022-10-22T02:22:40.289Z,10.50
2022-10-22T02:25:29.460Z,10.46
2022-10-22T02:28:26.068Z,10.45
2022-10-22T02:31:19.448Z,10.36
2022-10-22T02:34:10.239Z,10.40
2022-10-22T02:36:57.546Z,10.44
2022-10-22T02:39:43.975Z,10.40
2022-10-22T02:42:30.158Z,10.39
2022-10-22T02:45:19.758Z,10.38
2022-10-22T02:48:06.287Z,10.37
2022-10-22T02:50:52.151Z,10.36
2022-10-22T02:53:38.142Z,10.32
2022-10-22T02:56:23.809Z,10.30
2022-10-22T02:59:09.621Z,10.23
2022-10-22T03:01:55.321Z,10.25
2022-10-22T03:04:41.094Z,10.23
2022-10-22T03:07:28.008Z,10.20
2022-10-22T03:10:13.970Z,10.21
2022-10-22T03:12:59.786Z,10.21
2022-10-22T03:15:45.597Z,10.16
2022-10-22T03:18:31.334Z,10.18
2022-10-22T03:21:19.905Z,10.18
2022-10-22T03:24:10.437Z,10.14
2022-10-22T03:26:56.425Z,10.13
2022-10-22T03:29:43.153Z,10.12
2022-10-22T03:32:29.114Z,10.09
2022-10-22T03:35:15.099Z,10.10
2022-10-22T03:38:01.546Z,10.10
2022-10-22T03:40:47.569Z,10.09
2022-10-22T03:43:35.019Z,10.12
2022-10-22T03:46:21.182Z,10.11
2022-10-22T03:49:07.186Z,10.10
2022-10-22T03:51:52.966Z,10.08
2022-10-22T03:57:30.357Z,10.06
2022-10-22T04:00:16.516Z,10.04
2022-10-22T04:03:02.443Z,10.04
2022-10-22T04:05:48.174Z,10.00
2022-10-22T04:08:34.391Z,10.02
2022-10-22T04:11:20.117Z,10.02
2022-10-22T04:14:06.040Z,10.01
2022-10-22T04:16:52.201Z,9.99
2022-10-22T04:19:38.323Z,10.02
2022-10-22T04:22:24.346Z,10.03
2022-10-22T04:25:10.126Z,10.04
2022-10-22T04:27:56.174Z,10.05
2022-10-22T04:30:41.729Z,10.07
2022-10-22T04:33:27.661Z,10.05
2022-10-22T04:36:16.559Z,10.08
2022-10-22T04:39:03.655Z,10.06
2022-10-22T04:41:49.711Z,10.06
2022-10-22T04:44:35.561Z,10.05
2022-10-22T04:47:21.332Z,9.98
2022-10-22T04:50:07.778Z,9.99
2022-10-22T04:52:53.854Z,9.97
2022-10-22T04:55:39.547Z,9.96
2022-10-22T04:58:25.152Z,9.95
2022-10-22T05:01:12.613Z,9.94
2022-10-22T05:04:01.132Z,9.88
2022-10-22T05:06:47.280Z,9.91
2022-10-22T05:09:33.078Z,9.86
2022-10-22T05:12:18.742Z,9.93
2022-10-22T05:15:04.930Z,9.95
2022-10-22T05:17:50.886Z,9.99
2022-10-22T05:20:40.531Z,9.97
2022-10-22T05:23:26.633Z,10.06
2022-10-22T05:26:13.751Z,10.09
2022-10-22T05:28:59.448Z,10.13
2022-10-22T05:31:45.271Z,10.15
2022-10-22T05:34:33.371Z,10.19
2022-10-22T05:37:19.287Z,10.23
2022-10-22T05:40:19.296Z,10.26
2022-10-22T05:43:05.712Z,10.29
2022-10-22T05:45:51.487Z,10.39
2022-10-22T05:48:37.548Z,10.43
2022-10-22T05:51:24.657Z,10.49
2022-10-22T05:54:17.514Z,10.53
2022-10-22T05:57:03.544Z,10.57
2022-10-22T05:59:49.640Z,10.61
2022-10-22T06:02:35.547Z,10.66
2022-10-22T06:05:21.648Z,10.69
2022-10-22T06:08:12.045Z,10.73
2022-10-22T06:11:00.655Z,10.77
2022-10-22T06:13:46.917Z,10.80
2022-10-22T06:16:33.051Z,10.86
2022-10-22T06:19:22.532Z,10.90
2022-10-22T06:22:08.363Z,10.95
2022-10-22T06:24:54.118Z,10.91
2022-10-22T06:27:39.869Z,11.05
2022-10-22T06:30:25.724Z,11.00
2022-10-22T06:33:11.410Z,11.09
2022-10-22T06:36:07.592Z,11.17
2022-10-22T06:38:55.472Z,11.22
2022-10-22T06:41:41.392Z,11.28
2022-10-22T06:44:27.408Z,11.35
2022-10-22T06:47:13.126Z,11.42
2022-10-22T06:49:58.812Z,11.48
2022-10-22T06:52:44.548Z,11.55
2022-10-22T06:55:30.808Z,11.55
2022-10-22T06:58:16.731Z,11.64
2022-10-22T07:01:08.558Z,11.72
2022-10-22T07:03:54.771Z,11.79
2022-10-22T07:06:40.549Z,11.88
2022-10-22T07:09:26.504Z,11.97
2022-10-22T07:12:13.831Z,12.07
2022-10-22T07:14:59.385Z,12.17
2022-10-22T07:17:45.288Z,12.28
2022-10-22T07:20:31.237Z,12.35
2022-10-22T07:23:17.556Z,12.45
2022-10-22T07:26:07.152Z,12.55
2022-10-22T07:28:53.076Z,12.63
2022-10-22T07:31:38.774Z,12.70
2022-10-22T07:34:24.877Z,12.71
2022-10-22T07:37:10.911Z,12.76
2022-10-22T07:40:00.233Z,12.76
2022-10-22T07:42:48.411Z,12.79
2022-10-22T07:45:34.253Z,12.79
2022-10-22T07:48:19.834Z,12.77
2022-10-22T07:51:06.236Z,12.79
2022-10-22T07:53:51.994Z,12.80
2022-10-22T07:56:38.042Z,12.82
2022-10-22T07:59:23.787Z,12.83
2022-10-22T08:02:10.729Z,12.87
2022-10-22T08:04:57.153Z,12.90
2022-10-22T08:07:43.827Z,12.92
2022-10-22T08:10:29.684Z,12.96
2022-10-22T08:13:16.990Z,13.00
2022-10-22T08:16:02.730Z,13.03
2022-10-22T08:18:48.501Z,13.11
2022-10-22T08:21:34.282Z,13.21
2022-10-22T08:24:20.149Z,13.31
2022-10-22T08:27:05.897Z,13.46
2022-10-22T08:29:52.170Z,13.60
2022-10-22T08:32:38.103Z,13.76
2022-10-22T08:35:24.242Z,13.92
2022-10-22T08:38:09.923Z,14.07
2022-10-22T08:41:03.996Z,14.23
2022-10-22T08:44:11.268Z,14.41
2022-10-22T08:47:06.599Z,14.60
2022-10-22T08:49:53.738Z,14.77
2022-10-22T08:52:41.068Z,14.96
2022-10-22T08:55:27.883Z,15.12
2022-10-22T08:58:25.121Z,15.32
2022-10-22T09:01:14.724Z,15.50
2022-10-22T09:04:11.564Z,15.67
2022-10-22T09:06:59.342Z,15.84
2022-10-22T09:09:47.960Z,15.98
2022-10-22T09:12:33.900Z,16.18
2022-10-22T09:15:20.166Z,16.35
2022-10-22T09:18:28.039Z,16.54
2022-10-22T09:21:53.174Z,16.73
2022-10-22T09:24:39.914Z,16.90
2022-10-22T09:27:31.998Z,17.05
2022-10-22T09:30:22.289Z,17.28
2022-10-22T09:33:08.017Z,17.46
2022-10-22T09:35:55.033Z,17.63
2022-10-22T09:38:45.333Z,17.81
2022-10-22T09:41:31.586Z,17.99
2022-10-22T09:44:19.349Z,18.18
2022-10-22T09:47:07.256Z,18.34
2022-10-22T09:50:17.073Z,18.58
2022-10-22T09:53:13.962Z,18.80
2022-10-22T09:56:10.783Z,18.98
2022-10-22T09:58:58.252Z,19.18
2022-10-22T10:01:44.721Z,19.36
2022-10-22T10:04:34.826Z,19.55
2022-10-22T10:07:31.517Z,19.75
2022-10-22T10:10:21.874Z,19.96
2022-10-22T10:13:22.709Z,20.15
2022-10-22T10:16:13.182Z,20.37
2022-10-22T10:19:24.136Z,20.56
2022-10-22T10:22:34.619Z,20.77
2022-10-22T10:25:26.671Z,20.99
2022-10-22T10:28:21.798Z,21.23
2022-10-22T10:31:21.296Z,21.43
2022-10-22T10:34:19.200Z,21.66
2022-10-22T10:37:25.705Z,21.86
2022-10-22T10:40:28.881Z,22.13
2022-10-22T10:43:41.393Z,22.44
2022-10-22T10:46:43.044Z,22.76
2022-10-22T10:49:34.993Z,23.00
2022-10-22T10:52:37.833Z,23.19
2022-10-22T10:56:17.025Z,23.55
2022-10-22T10:59:40.245Z,23.87
2022-10-22T11:02:52.799Z,24.20
2022-10-22T11:05:46.456Z,24.62
2022-10-22T11:08:45.476Z,25.23
2022-10-22T11:11:59.548Z,26.29
2022-10-22T11:14:59.744Z,27.59
2022-10-22T11:17:46.696Z,29.00
2022-10-22T11:20:45.108Z,30.67
2022-10-22T11:23:46.661Z,32.44
2022-10-22T11:26:46.974Z,34.05
2022-10-22T11:29:39.327Z,35.32
2022-10-22T11:32:27.320Z,36.60
2022-10-22T11:35:22.228Z,37.96
2022-10-22T11:38:15.578Z,39.35
2022-10-22T11:41:05.902Z,40.49
2022-10-22T11:44:01.313Z,41.56
2022-10-22T11:47:15.493Z,42.12
2022-10-22T11:50:19.277Z,42.04
2022-10-22T11:53:13.088Z,42.03
2022-10-22T11:56:25.024Z,42.88
2022-10-22T11:59:38.235Z,43.55
2022-10-22T12:02:46.575Z,43.56
2022-10-22T12:05:35.355Z,42.31
2022-10-22T12:08:24.048Z,40.94
2022-10-22T12:11:28.097Z,39.65
2022-10-22T12:14:20.700Z,38.17
2022-10-22T12:17:13.989Z,37.08
2022-10-22T12:20:14.211Z,36.23
2022-10-22T12:23:00.108Z,35.44
2022-10-22T12:25:46.238Z,35.59
2022-10-22T12:28:50.428Z,36.35
2022-10-22T12:31:38.394Z,37.09
2022-10-22T12:34:25.989Z,37.33
2022-10-22T12:37:14.355Z,37.31
2022-10-22T12:40:00.852Z,37.83
2022-10-22T12:42:51.577Z,38.50
2022-10-22T12:45:41.365Z,38.69
2022-10-22T12:48:36.410Z,38.34
2022-10-22T12:51:22.541Z,37.38
2022-10-22T12:54:13.594Z,36.43
2022-10-22T12:57:00.509Z,35.47
2022-10-22T12:59:49.995Z,34.93
2022-10-22T13:02:36.118Z,34.18
2022-10-22T13:05:27.743Z,33.34
2022-10-22T13:08:26.801Z,32.37
2022-10-22T13:11:12.890Z,31.32
2022-10-22T13:14:06.638Z,30.51
2022-10-22T13:17:10.853Z,29.67
2022-10-22T13:19:57.382Z,28.81
2022-10-22T13:23:00.884Z,28.20
2022-10-22T13:26:13.979Z,27.58
2022-10-22T13:29:01.289Z,26.94
2022-10-22T13:31:52.481Z,26.46
2022-10-22T13:34:38.445Z,26.01
2022-10-22T13:37:25.017Z,25.67
2022-10-22T13:40:15.198Z,25.29
2022-10-22T13:43:00.936Z,24.96
2022-10-22T13:45:54.891Z,24.66
2022-10-22T13:48:41.297Z,24.38
2022-10-22T13:51:37.500Z,24.12
2022-10-22T13:54:24.590Z,23.86
2022-10-22T13:57:11.592Z,23.58
2022-10-22T13:59:57.396Z,23.35
2022-10-22T14:02:44.694Z,23.15
2022-10-22T14:05:32.555Z,22.95
2022-10-22T14:08:22.804Z,22.74
2022-10-22T14:11:11.403Z,22.51
2022-10-22T14:13:57.536Z,22.42
2022-10-22T14:16:43.641Z,22.31
2022-10-22T14:19:30.214Z,22.24
2022-10-22T14:22:17.775Z,22.25
2022-10-22T14:25:03.626Z,22.27
2022-10-22T14:27:50.116Z,22.33
2022-10-22T14:30:36.831Z,22.33
2022-10-22T14:33:28.930Z,22.31
2022-10-22T14:36:19.100Z,22.26
2022-10-22T14:39:05.090Z,22.19
2022-10-22T14:41:50.648Z,22.13
2022-10-22T14:44:36.511Z,22.07
2022-10-22T14:47:22.626Z,22.00
2022-10-22T14:50:08.736Z,21.93
2022-10-22T14:52:57.270Z,21.87
2022-10-22T14:55:44.474Z,21.82
2022-10-22T14:58:30.506Z,21.79
2022-10-22T15:01:17.036Z,21.76
2022-10-22T15:04:03.065Z,21.69
2022-10-22T15:06:49.285Z,21.60
2022-10-22T15:09:35.720Z,21.48
2022-10-22T15:12:21.809Z,21.41
2022-10-22T15:15:08.173Z,21.33
2022-10-22T15:17:54.076Z,21.21
2022-10-22T15:20:40.126Z,21.14
2022-10-22T15:23:26.306Z,21.00
2022-10-22T15:26:13.126Z,20.93
2022-10-22T15:28:59.312Z,20.84
2022-10-22T15:31:51.629Z,20.73
2022-10-22T15:34:38.847Z,20.62
2022-10-22T15:37:24.816Z,20.48
2022-10-22T15:40:10.806Z,20.43
2022-10-22T15:42:56.571Z,20.31
2022-10-22T15:45:42.237Z,20.23
2022-10-22T15:48:27.873Z,20.13
2022-10-22T15:51:16.074Z,20.02
2022-10-22T15:54:03.540Z,19.86
2022-10-22T15:56:52.365Z,19.81
2022-10-22T15:59:38.493Z,19.71
2022-10-22T16:02:24.549Z,19.61
2022-10-22T16:05:10.401Z,19.51
2022-10-22T16:07:57.190Z,19.43
2022-10-22T16:10:48.531Z,19.38
2022-10-22T16:13:36.929Z,19.29
2022-10-22T16:16:23.850Z,19.25
2022-10-22T16:19:11.183Z,19.17
2022-10-22T16:21:57.906Z,19.07
2022-10-22T16:24:43.721Z,19.06
2022-10-22T16:27:29.751Z,18.97
2022-10-22T16:30:15.685Z,18.90
2022-10-22T16:33:03.456Z,18.83
2022-10-22T16:35:49.804Z,18.76
2022-10-22T16:38:35.457Z,18.65
2022-10-22T16:41:23.240Z,18.61
2022-10-22T16:44:10.197Z,18.54
2022-10-22T16:46:56.247Z,18.47
2022-10-22T16:49:41.904Z,18.36
2022-10-22T16:52:27.600Z,18.30
2022-10-22T16:55:13.211Z,18.23
2022-10-22T16:57:59.255Z,18.16
2022-10-22T17:00:45.110Z,18.10
2022-10-22T17:03:30.836Z,18.05
2022-10-22T17:06:16.724Z,17.98
2022-10-22T17:09:02.817Z,17.93
2022-10-22T17:11:48.541Z,17.88
2022-10-22T17:14:34.553Z,17.82
2022-10-22T17:17:20.466Z,17.77
2022-10-22T17:20:06.807Z,17.73
2022-10-22T17:22:52.917Z,17.66
2022-10-22T17:25:43.910Z,17.61
2022-10-22T17:28:30.288Z,17.56
2022-10-22T17:31:22.271Z,17.48
2022-10-22T17:34:11.193Z,17.42
2022-10-22T17:37:00.187Z,17.36
2022-10-22T17:39:46.596Z,17.30
2022-10-22T17:42:32.527Z,17.25
2022-10-22T17:45:18.583Z,17.19
2022-10-22T17:48:04.435Z,17.15
2022-10-22T17:50:51.011Z,17.10
2022-10-22T17:53:43.011Z,17.04
2022-10-22T17:56:32.499Z,16.99
2022-10-22T17:59:19.113Z,16.95
2022-10-22T18:02:04.985Z,16.91
2022-10-22T18:04:52.442Z,16.85
2022-10-22T18:07:38.639Z,16.77
2022-10-22T18:10:24.656Z,16.72
2022-10-22T18:13:10.463Z,16.66
2022-10-22T18:15:56.679Z,16.64
2022-10-22T18:18:46.417Z,16.56
2022-10-22T18:21:32.227Z,16.47
2022-10-22T18:24:18.615Z,16.45
2022-10-22T18:27:05.132Z,16.39
2022-10-22T18:29:51.197Z,16.34
2022-10-22T18:32:37.360Z,16.24
2022-10-22T18:35:24.469Z,16.25
2022-10-22T18:38:11.702Z,16.18
2022-10-22T18:40:57.686Z,16.16
2022-10-22T18:43:43.763Z,16.10
2022-10-22T18:46:31.765Z,16.05
2022-10-22T18:49:19.355Z,15.98
2022-10-22T18:52:05.328Z,15.96
2022-10-22T18:54:51.401Z,15.92
2022-10-22T18:57:37.502Z,15.86
2022-10-22T19:00:23.219Z,15.81
2022-10-22T19:03:09.309Z,15.74
2022-10-22T19:05:59.977Z,15.70
2022-10-22T19:08:50.669Z,15.67
2022-10-22T19:11:38.133Z,15.62
2022-10-22T19:14:24.588Z,15.58
2022-10-22T19:17:11.026Z,15.51
2022-10-22T19:20:08.322Z,15.49
2022-10-22T19:22:55.989Z,15.48
2022-10-22T19:25:42.773Z,15.45
2022-10-22T19:28:28.881Z,15.42
2022-10-22T19:31:18.481Z,15.35
2022-10-22T19:34:04.531Z,15.37
2022-10-22T19:36:51.911Z,15.31
2022-10-22T19:39:37.966Z,15.29
2022-10-22T19:42:23.776Z,15.24
2022-10-22T19:45:10.119Z,15.17
2022-10-22T19:47:56.139Z,15.17
2022-10-22T19:50:42.278Z,15.13
2022-10-22T19:53:28.205Z,15.07
2022-10-22T19:56:18.797Z,15.06
2022-10-22T19:59:05.880Z,15.00
2022-10-22T20:01:51.928Z,15.01
2022-10-22T20:04:38.034Z,14.99
2022-10-22T20:07:24.019Z,14.94
2022-10-22T20:10:10.114Z,14.91
2022-10-22T20:12:56.154Z,14.86
2022-10-22T20:15:41.984Z,14.84
2022-10-22T20:18:28.063Z,14.78
2022-10-22T20:21:15.134Z,14.74
2022-10-22T20:24:01.490Z,14.70
2022-10-22T20:26:48.684Z,14.69
2022-10-22T20:29:34.918Z,14.66
2022-10-22T20:32:22.152Z,14.62
2022-10-22T20:35:08.393Z,14.59
2022-10-22T20:37:54.290Z,14.55
2022-10-22T20:40:39.954Z,14.51
2022-10-22T20:43:25.846Z,14.46
2022-10-22T20:46:19.051Z,14.41
2022-10-22T20:49:08.069Z,14.35
2022-10-22T20:51:53.786Z,14.18
2022-10-22T20:54:42.610Z,14.27
2022-10-22T20:57:28.506Z,14.13
2022-10-22T21:00:14.476Z,14.20
2022-10-22T21:03:00.440Z,14.16
2022-10-22T21:05:46.415Z,14.13
2022-10-22T21:08:32.602Z,14.09
2022-10-22T21:11:19.687Z,14.05
2022-10-22T21:14:09.233Z,13.98
2022-10-22T21:16:54.985Z,13.94
2022-10-22T21:19:40.959Z,13.90
2022-10-22T21:22:26.736Z,13.85
2022-10-22T21:25:12.697Z,13.81
2022-10-22T21:27:58.818Z,13.78
2022-10-22T21:30:45.796Z,13.76
2022-10-22T21:33:32.175Z,13.72
2022-10-22T21:36:22.484Z,13.68
2022-10-22T21:39:08.685Z,13.68
2022-10-22T21:41:54.609Z,13.64
2022-10-22T21:44:40.651Z,13.62
2022-10-22T21:47:26.843Z,13.60
2022-10-22T21:50:12.511Z,13.57
2022-10-22T21:52:58.443Z,13.55
2022-10-22T21:55:44.297Z,13.52
2022-10-22T21:58:30.282Z,13.46
2022-10-22T22:01:17.171Z,13.42
2022-10-22T22:04:03.431Z,13.38
2022-10-22T22:06:49.391Z,13.28
2022-10-22T22:09:35.747Z,13.25
2022-10-22T22:12:21.830Z,13.19
2022-10-22T22:15:08.753Z,13.12
2022-10-22T22:17:54.716Z,13.07
2022-10-22T22:20:40.538Z,13.04
2022-10-22T22:23:26.687Z,13.00
2022-10-22T22:26:13.457Z,12.98
2022-10-22T22:29:00.221Z,12.93
2022-10-22T22:31:46.162Z,12.89
2022-10-22T22:34:36.686Z,12.89
2022-10-22T22:37:24.694Z,12.83
2022-10-22T22:40:11.003Z,12.83
2022-10-22T22:42:57.073Z,12.80
2022-10-22T22:45:42.805Z,12.75
2022-10-22T22:48:28.999Z,12.70
2022-10-22T22:51:14.786Z,12.62
2022-10-22T22:54:01.178Z,12.65
2022-10-22T22:56:49.910Z,12.64
2022-10-22T22:59:35.603Z,12.62
2022-10-22T23:02:21.308Z,12.58
2022-10-22T23:05:07.917Z,12.63
2022-10-22T23:07:53.834Z,12.63
2022-10-22T23:10:39.461Z,12.63
2022-10-22T23:13:25.093Z,12.63
2022-10-22T23:16:15.970Z,12.63
2022-10-22T23:19:02.120Z,12.63
2022-10-22T23:21:50.945Z,12.62
2022-10-22T23:24:40.471Z,12.64
2022-10-22T23:27:26.393Z,12.64
2022-10-22T23:31:01.029Z,12.63
2022-10-22T23:33:48.807Z,12.64
2022-10-22T23:36:36.806Z,12.63
2022-10-22T23:39:28.278Z,12.61
2022-10-22T23:42:13.930Z,12.60
2022-10-22T23:44:59.704Z,12.60
2022-10-22T23:47:45.378Z,12.61
2022-10-22T23:50:31.062Z,12.59
2022-10-22T23:53:16.930Z,12.59
2022-10-22T23:56:08.143Z,12.57
2022-10-22T23:58:54.854Z,12.54
